createdAt,value
2018-01-13T00:00:29.673Z,2.38
2018-01-13T00:01:29.710Z,2.41
2018-01-13T00:02:29.710Z,2.31
2018-01-13T00:04:29.481Z,2.35
2018-01-13T00:05:29.763Z,2.34
2018-01-13T00:07:29.792Z,2.46
2018-01-13T00:08:29.801Z,2.34
2018-01-13T00:09:29.813Z,2.31
2018-01-13T00:10:29.832Z,2.36
2018-01-13T00:11:29.822Z,2.34
2018-01-13T00:13:29.881Z,2.34
2018-01-13T00:14:29.623Z,2.3
2018-01-13T00:15:29.893Z,2.31
2018-01-13T00:16:29.913Z,2.36
2018-01-13T00:17:29.900Z,2.35
2018-01-13T00:18:29.912Z,2.35
2018-01-13T00:19:29.439Z,2.3
2018-01-13T00:20:29.987Z,2.35
2018-01-13T00:21:29.953Z,2.35
2018-01-13T00:22:44.397Z,2.35
2018-01-13T00:23:30.003Z,2.25
2018-01-13T00:24:29.777Z,2.16
2018-01-13T00:26:30.040Z,2.14
2018-01-13T00:27:30.035Z,2.09
2018-01-13T00:28:30.068Z,2.18
2018-01-13T00:29:29.838Z,2.17
2018-01-13T00:30:30.098Z,2.25
2018-01-13T00:31:30.117Z,2.23
2018-01-13T00:33:30.138Z,2.18
2018-01-13T00:34:29.892Z,2.21
2018-01-13T00:35:29.905Z,2.25
2018-01-13T00:36:30.175Z,2.18
2018-01-13T00:37:44.851Z,2.28
2018-01-13T00:38:30.184Z,2.2
2018-01-13T00:39:30.206Z,2.23
2018-01-13T00:40:30.214Z,2.34
2018-01-13T00:41:29.975Z,2.41
2018-01-13T00:42:30.277Z,2.27
2018-01-13T00:43:30.017Z,2.34
2018-01-13T00:44:30.308Z,2.3
2018-01-13T00:45:30.033Z,2.28
2018-01-13T00:46:30.307Z,2.28
2018-01-13T00:47:30.078Z,2.28
2018-01-13T00:48:30.322Z,2.3
2018-01-13T00:49:30.102Z,2.34
2018-01-13T00:50:30.103Z,2.39
2018-01-13T00:51:30.124Z,2.43
2018-01-13T00:52:30.147Z,2.39
2018-01-13T00:53:30.172Z,2.42
2018-01-13T00:54:30.171Z,2.31
2018-01-13T00:55:30.191Z,2.31
2018-01-13T00:56:30.176Z,2.35
2018-01-13T00:57:30.211Z,2.35
2018-01-13T00:58:30.484Z,2.31
2018-01-13T00:59:30.490Z,2.38
2018-01-13T01:00:30.488Z,2.36
2018-01-13T01:01:30.514Z,2.35
2018-01-13T01:02:44.938Z,2.35
2018-01-13T01:04:30.556Z,2.28
2018-01-13T01:05:30.554Z,2.34
2018-01-13T01:06:30.585Z,2.31
2018-01-13T01:07:30.616Z,2.35
2018-01-13T01:08:45.313Z,2.36
2018-01-13T01:09:45.295Z,2.3
2018-01-13T01:10:30.625Z,2.36
2018-01-13T01:11:30.635Z,2.31
2018-01-13T01:12:30.680Z,2.36
2018-01-13T01:13:30.665Z,2.34
2018-01-13T01:14:30.697Z,2.35
2018-01-13T01:16:30.725Z,2.3
2018-01-13T01:17:30.497Z,2.21
2018-01-13T01:18:30.497Z,2.36
2018-01-13T01:20:30.514Z,2.34
2018-01-13T01:21:30.787Z,2.3
2018-01-13T01:22:30.787Z,2.28
2018-01-13T01:23:30.877Z,2.23
2018-01-13T01:24:30.811Z,2.2
2018-01-13T01:25:45.549Z,2.27
2018-01-13T01:26:30.876Z,2.3
2018-01-13T01:27:30.867Z,2.28
2018-01-13T01:28:30.865Z,2.36
2018-01-13T01:29:30.657Z,2.25
2018-01-13T01:30:30.907Z,2.3
2018-01-13T01:32:30.916Z,2.3
2018-01-13T01:33:45.361Z,2.17
2018-01-13T01:34:30.944Z,2.12
2018-01-13T01:35:30.954Z,2.23
2018-01-13T01:36:30.997Z,2.1
2018-01-13T01:38:30.748Z,2.2
2018-01-13T01:39:45.693Z,2.14
2018-01-13T01:40:45.711Z,2.07
2018-01-13T01:41:45.747Z,2.1
2018-01-13T01:42:30.802Z,2.2
2018-01-13T01:43:31.063Z,2.14
2018-01-13T01:44:31.114Z,2.1
2018-01-13T01:45:30.860Z,2.1
2018-01-13T01:46:31.136Z,2.03
2018-01-13T01:47:31.122Z,2.17
2018-01-13T01:48:31.136Z,2.03
2018-01-13T01:49:31.170Z,2.07
2018-01-13T01:50:31.186Z,2.09
2018-01-13T01:51:31.182Z,2.18
2018-01-13T01:52:31.249Z,2.17
2018-01-13T01:53:30.976Z,2.12
2018-01-13T01:54:31.234Z,2.16
2018-01-13T01:55:31.268Z,2.17
2018-01-13T01:56:31.267Z,2.1
2018-01-13T01:57:45.697Z,2.03
2018-01-13T01:58:31.285Z,2.12
2018-01-13T01:59:31.288Z,2.07
2018-01-13T02:00:31.327Z,2.09
2018-01-13T02:01:31.332Z,2.12
2018-01-13T02:02:30.834Z,2.12
2018-01-13T02:03:31.382Z,2.16
2018-01-13T02:04:31.355Z,2.03
2018-01-13T02:05:31.384Z,2.23
2018-01-13T02:06:31.156Z,2.18
2018-01-13T02:07:31.165Z,2.17
2018-01-13T02:08:31.172Z,2.12
2018-01-13T02:09:31.437Z,2.03
2018-01-13T02:10:31.187Z,2.05
2018-01-13T02:11:31.210Z,2.09
2018-01-13T02:14:31.505Z,2.16
2018-01-13T02:15:31.258Z,2.16
2018-01-13T02:16:31.528Z,2.12
2018-01-13T02:17:31.571Z,2.1
2018-01-13T02:19:31.326Z,2.03
2018-01-13T02:20:31.612Z,2.1
2018-01-13T02:21:31.624Z,2.1
2018-01-13T02:22:31.592Z,2.05
2018-01-13T02:23:31.626Z,2.14
2018-01-13T02:24:31.664Z,2.12
2018-01-13T02:25:31.387Z,2.02
2018-01-13T02:26:31.665Z,2.1
2018-01-13T02:27:31.407Z,2.1
2018-01-13T02:28:31.184Z,2.16
2018-01-13T02:29:31.706Z,2.12
2018-01-13T02:30:31.483Z,2.16
2018-01-13T02:32:31.736Z,2.1
2018-01-13T02:33:31.762Z,2.09
2018-01-13T02:34:31.798Z,2.14
2018-01-13T02:35:31.773Z,2.09
2018-01-13T02:36:46.219Z,2.17
2018-01-13T02:37:31.793Z,2.07
2018-01-13T02:38:46.514Z,2.07
2018-01-13T02:39:31.852Z,2.02
2018-01-13T02:40:31.865Z,2.03
2018-01-13T02:41:31.946Z,1.98
2018-01-13T02:42:31.861Z,2.1
2018-01-13T02:43:31.872Z,2
2018-01-13T02:44:46.317Z,1.99
2018-01-13T02:45:31.907Z,2.09
2018-01-13T02:47:31.971Z,2
2018-01-13T02:48:31.452Z,2.03
2018-01-13T02:49:31.972Z,2.02
2018-01-13T02:50:31.971Z,1.95
2018-01-13T02:51:31.998Z,1.99
2018-01-13T02:52:32.000Z,2.02
2018-01-13T02:53:46.710Z,2.06
2018-01-13T02:54:32.047Z,2.05
2018-01-13T02:55:32.081Z,2.03
2018-01-13T02:56:31.811Z,1.98
2018-01-13T02:57:32.081Z,2.03
2018-01-13T02:58:31.829Z,1.99
2018-01-13T02:59:31.864Z,2.03
2018-01-13T03:00:46.788Z,2.02
2018-01-13T03:01:31.864Z,1.99
2018-01-13T03:02:32.125Z,2.05
2018-01-13T03:03:32.166Z,2.03
2018-01-13T03:04:32.150Z,2.03
2018-01-13T03:05:31.921Z,2.16
2018-01-13T03:06:32.180Z,2.09
2018-01-13T03:07:31.970Z,2.12
2018-01-13T03:08:32.233Z,2.07
2018-01-13T03:09:31.732Z,2.05
2018-01-13T03:10:31.982Z,2.05
2018-01-13T03:11:31.997Z,1.99
2018-01-13T03:12:46.962Z,2
2018-01-13T03:13:46.978Z,2.05
2018-01-13T03:14:32.306Z,2
2018-01-13T03:15:32.336Z,1.99
2018-01-13T03:16:46.744Z,1.88
2018-01-13T03:17:32.076Z,1.86
2018-01-13T03:18:32.349Z,1.84
2018-01-13T03:19:32.144Z,2.02
2018-01-13T03:20:32.411Z,2
2018-01-13T03:21:32.434Z,1.95
2018-01-13T03:22:32.424Z,2.05
2018-01-13T03:23:32.195Z,2.03
2018-01-13T03:24:31.923Z,2.02
2018-01-13T03:25:32.463Z,2.03
2018-01-13T03:26:32.448Z,2.02
2018-01-13T03:27:32.484Z,1.99
2018-01-13T03:28:32.235Z,2.03
2018-01-13T03:29:47.190Z,1.99
2018-01-13T03:30:32.533Z,2.02
2018-01-13T03:31:32.580Z,1.95
2018-01-13T03:32:47.205Z,1.98
2018-01-13T03:33:32.286Z,2.14
2018-01-13T03:34:32.326Z,2.09
2018-01-13T03:35:32.086Z,1.99
2018-01-13T03:36:32.606Z,1.95
2018-01-13T03:37:32.591Z,2
2018-01-13T03:38:32.354Z,2.02
2018-01-13T03:39:47.402Z,1.87
2018-01-13T03:40:32.405Z,1.9
2018-01-13T03:41:32.665Z,1.98
2018-01-13T03:42:32.179Z,1.98
2018-01-13T03:43:32.695Z,1.99
2018-01-13T03:44:32.710Z,1.98
2018-01-13T03:45:32.697Z,1.95
2018-01-13T03:46:32.714Z,1.99
2018-01-13T03:47:47.425Z,1.95
2018-01-13T03:48:32.766Z,2
2018-01-13T03:49:32.528Z,1.98
2018-01-13T03:50:32.795Z,1.98
2018-01-13T03:51:32.530Z,2
2018-01-13T03:52:32.543Z,2.05
2018-01-13T03:55:32.837Z,2.02
2018-01-13T03:56:32.846Z,2.06
2018-01-13T03:57:32.619Z,2.03
2018-01-13T03:58:32.895Z,2.05
2018-01-13T03:59:32.657Z,1.95
2018-01-13T04:00:32.649Z,1.99
2018-01-13T04:01:32.683Z,1.95
2018-01-13T04:02:32.690Z,1.88
2018-01-13T04:03:32.956Z,2
2018-01-13T04:04:47.638Z,1.99
2018-01-13T04:05:32.716Z,1.87
2018-01-13T04:06:32.790Z,1.88
2018-01-13T04:07:33.003Z,1.83
2018-01-13T04:08:33.011Z,1.86
2018-01-13T04:09:32.784Z,1.95
2018-01-13T04:10:33.055Z,1.95
2018-01-13T04:11:32.793Z,1.98
2018-01-13T04:12:33.064Z,1.9
2018-01-13T04:13:47.773Z,1.91
2018-01-13T04:14:33.124Z,1.99
2018-01-13T04:15:33.115Z,1.88
2018-01-13T04:16:33.142Z,1.95
2018-01-13T04:17:32.908Z,1.95
2018-01-13T04:18:32.911Z,1.86
2018-01-13T04:19:47.587Z,1.99
2018-01-13T04:20:33.230Z,1.91
2018-01-13T04:21:32.961Z,1.98
2018-01-13T04:22:32.976Z,2.03
2018-01-13T04:23:32.979Z,2.05
2018-01-13T04:25:33.288Z,1.99
2018-01-13T04:26:33.260Z,1.99
2018-01-13T04:27:33.006Z,2.02
2018-01-13T04:28:32.807Z,1.98
2018-01-13T04:29:47.987Z,1.91
2018-01-13T04:30:33.302Z,1.88
2018-01-13T04:31:33.326Z,1.93
2018-01-13T04:32:33.348Z,1.93
2018-01-13T04:33:33.092Z,2.02
2018-01-13T04:34:33.380Z,1.95
2018-01-13T04:35:48.053Z,1.86
2018-01-13T04:36:33.519Z,1.93
2018-01-13T04:37:33.398Z,1.91
2018-01-13T04:38:33.433Z,2.02
2018-01-13T04:39:33.416Z,1.99
2018-01-13T04:40:33.454Z,2.02
2018-01-13T04:41:32.958Z,2
2018-01-13T04:42:32.973Z,2.05
2018-01-13T04:43:33.490Z,1.87
2018-01-13T04:44:33.252Z,1.91
2018-01-13T04:45:33.278Z,1.98
2018-01-13T04:46:33.510Z,1.99
2018-01-13T04:47:33.315Z,1.98
2018-01-13T04:48:33.052Z,2.05
2018-01-13T04:49:48.233Z,1.91
2018-01-13T04:50:33.587Z,1.87
2018-01-13T04:51:48.018Z,2.02
2018-01-13T04:52:33.632Z,2.05
2018-01-13T04:53:33.627Z,1.87
2018-01-13T04:54:33.625Z,1.9
2018-01-13T04:55:33.645Z,1.93
2018-01-13T04:56:33.646Z,1.9
2018-01-13T04:57:33.158Z,1.91
2018-01-13T04:58:33.423Z,1.84
2018-01-13T04:59:48.117Z,1.84
2018-01-13T05:00:33.725Z,1.91
2018-01-13T05:01:33.463Z,1.91
2018-01-13T05:02:33.483Z,1.93
2018-01-13T05:03:33.506Z,2.02
2018-01-13T05:04:33.755Z,1.98
2018-01-13T05:05:33.533Z,1.93
2018-01-13T05:06:33.553Z,1.93
2018-01-13T05:07:48.472Z,1.8
2018-01-13T05:08:33.804Z,1.84
2018-01-13T05:09:33.824Z,1.84
2018-01-13T05:10:33.603Z,1.86
2018-01-13T05:11:33.868Z,1.87
2018-01-13T05:12:33.878Z,1.87
2018-01-13T05:13:33.623Z,1.91
2018-01-13T05:14:33.647Z,1.93
2018-01-13T05:15:48.333Z,1.84
2018-01-13T05:18:33.968Z,1.95
2018-01-13T05:19:33.714Z,1.91
2018-01-13T05:20:33.985Z,1.91
2018-01-13T05:21:33.755Z,1.83
2018-01-13T05:22:48.679Z,1.86
2018-01-13T05:23:33.760Z,1.81
2018-01-13T05:24:33.776Z,1.87
2018-01-13T05:26:34.040Z,1.93
2018-01-13T05:27:34.096Z,1.84
2018-01-13T05:28:33.597Z,1.95
2018-01-13T05:29:34.123Z,1.86
2018-01-13T05:30:34.116Z,1.91
2018-01-13T05:31:33.887Z,1.95
2018-01-13T05:32:48.567Z,1.91
2018-01-13T05:33:33.887Z,1.84
2018-01-13T05:34:33.921Z,1.84
2018-01-13T05:35:34.167Z,1.87
2018-01-13T05:36:33.693Z,1.83
2018-01-13T05:37:34.228Z,1.84
2018-01-13T05:38:34.200Z,1.76
2018-01-13T05:39:33.729Z,1.76
2018-01-13T05:40:34.227Z,1.73
2018-01-13T05:41:34.010Z,1.84
2018-01-13T05:42:34.012Z,1.88
2018-01-13T05:43:34.271Z,1.87
2018-01-13T05:44:34.282Z,1.87
2018-01-13T05:45:34.320Z,1.79
2018-01-13T05:46:34.313Z,1.84
2018-01-13T05:47:34.087Z,1.81
2018-01-13T05:48:33.847Z,1.84
2018-01-13T05:49:34.119Z,1.83
2018-01-13T05:50:34.400Z,1.84
2018-01-13T05:51:34.122Z,1.83
2018-01-13T05:52:34.388Z,1.84
2018-01-13T05:53:34.401Z,1.81
2018-01-13T05:54:49.092Z,1.99
2018-01-13T05:55:34.452Z,2.02
2018-01-13T05:56:34.468Z,1.98
2018-01-13T05:57:34.201Z,1.95
2018-01-13T05:58:34.249Z,1.95
2018-01-13T05:59:34.235Z,1.9
2018-01-13T06:00:34.095Z,1.83
2018-01-13T06:01:48.938Z,1.87
2018-01-13T06:02:34.543Z,1.91
2018-01-13T06:03:34.556Z,1.99
2018-01-13T06:05:34.579Z,2.02
2018-01-13T06:07:34.611Z,2.02
2018-01-13T06:08:34.110Z,1.98
2018-01-13T06:09:34.637Z,1.88
2018-01-13T06:10:49.313Z,1.9
2018-01-13T06:11:34.744Z,2.03
2018-01-13T06:12:34.432Z,2.05
2018-01-13T06:13:49.373Z,1.99
2018-01-13T06:14:34.681Z,2.05
2018-01-13T06:15:34.717Z,2.03
2018-01-13T06:16:34.456Z,2.03
2018-01-13T06:17:34.738Z,2.03
2018-01-13T06:18:34.506Z,1.99
2018-01-13T06:19:34.787Z,1.95
2018-01-13T06:20:34.803Z,2.09
2018-01-13T06:21:34.523Z,1.99
2018-01-13T06:22:34.787Z,1.93
2018-01-13T06:23:49.483Z,1.93
2018-01-13T06:24:34.583Z,1.84
2018-01-13T06:25:49.503Z,1.81
2018-01-13T06:26:49.268Z,1.99
2018-01-13T06:27:34.876Z,1.88
2018-01-13T06:28:34.633Z,1.98
2018-01-13T06:29:34.903Z,1.81
2018-01-13T06:30:34.933Z,1.98
2018-01-13T06:31:34.908Z,1.83
2018-01-13T06:32:34.675Z,1.87
2018-01-13T06:33:34.951Z,1.9
2018-01-13T06:34:34.962Z,1.83
2018-01-13T06:35:49.665Z,1.87
2018-01-13T06:36:34.742Z,1.81
2018-01-13T06:37:35.046Z,1.91
2018-01-13T06:38:34.768Z,1.95
2018-01-13T06:39:49.693Z,1.87
2018-01-13T06:40:35.060Z,1.95
2018-01-13T06:41:35.048Z,1.99
2018-01-13T06:42:49.756Z,1.95
2018-01-13T06:43:34.848Z,2.02
2018-01-13T06:44:34.850Z,2
2018-01-13T06:45:34.887Z,1.88
2018-01-13T06:46:34.894Z,1.87
2018-01-13T06:47:35.144Z,1.91
2018-01-13T06:48:35.132Z,1.86
2018-01-13T06:49:34.930Z,1.81
2018-01-13T06:50:34.916Z,1.86
2018-01-13T06:51:35.208Z,1.73
2018-01-13T06:52:35.210Z,1.8
2018-01-13T06:53:35.219Z,1.8
2018-01-13T06:54:35.252Z,1.81
2018-01-13T06:55:34.994Z,1.83
2018-01-13T06:56:35.256Z,1.83
2018-01-13T06:57:49.958Z,1.84
2018-01-13T06:58:35.283Z,1.84
2018-01-13T06:59:35.028Z,1.86
2018-01-13T07:00:35.288Z,1.86
2018-01-13T07:01:35.408Z,1.73
2018-01-13T07:02:35.350Z,1.86
2018-01-13T07:03:35.100Z,1.87
2018-01-13T07:04:35.345Z,1.9
2018-01-13T07:05:35.140Z,1.86
2018-01-13T07:06:35.120Z,1.76
2018-01-13T07:07:35.152Z,1.72
2018-01-13T07:08:35.415Z,1.76
2018-01-13T07:09:35.158Z,1.79
2018-01-13T07:10:35.184Z,1.73
2018-01-13T07:11:35.202Z,1.8
2018-01-13T07:12:35.450Z,1.73
2018-01-13T07:13:35.211Z,1.77
2018-01-13T07:14:35.478Z,1.84
2018-01-13T07:15:35.244Z,1.88
2018-01-13T07:16:35.519Z,1.81
2018-01-13T07:17:35.514Z,1.77
2018-01-13T07:18:35.528Z,1.77
2018-01-13T07:19:35.326Z,1.77
2018-01-13T07:20:35.595Z,1.69
2018-01-13T07:21:35.592Z,1.76
2018-01-13T07:22:35.094Z,1.79
2018-01-13T07:23:50.038Z,1.8
2018-01-13T07:24:35.639Z,1.73
2018-01-13T07:25:35.416Z,1.73
2018-01-13T07:26:35.654Z,1.77
2018-01-13T07:27:35.409Z,1.68
2018-01-13T07:28:35.444Z,1.68
2018-01-13T07:29:50.371Z,1.7
2018-01-13T07:30:35.734Z,1.62
2018-01-13T07:31:35.329Z,1.68
2018-01-13T07:32:35.735Z,1.66
2018-01-13T07:33:35.243Z,1.68
2018-01-13T07:34:35.499Z,1.63
2018-01-13T07:35:35.750Z,1.55
2018-01-13T07:36:35.763Z,1.6
2018-01-13T07:37:35.817Z,1.7
2018-01-13T07:38:35.312Z,1.76
2018-01-13T07:39:35.828Z,1.79
2018-01-13T07:40:35.582Z,1.77
2018-01-13T07:41:35.900Z,1.77
2018-01-13T07:42:35.593Z,1.79
2018-01-13T07:43:35.625Z,1.73
2018-01-13T07:44:35.879Z,1.79
2018-01-13T07:45:50.583Z,1.81
2018-01-13T07:46:35.680Z,1.76
2018-01-13T07:47:35.429Z,1.73
2018-01-13T07:48:35.928Z,1.73
2018-01-13T07:49:35.707Z,1.73
2018-01-13T07:50:35.702Z,1.77
2018-01-13T07:51:35.744Z,1.76
2018-01-13T07:52:35.997Z,1.79
2018-01-13T07:53:50.425Z,1.68
2018-01-13T07:54:35.767Z,1.73
2018-01-13T07:55:35.771Z,1.84
2018-01-13T07:56:35.797Z,1.7
2018-01-13T07:57:35.795Z,1.66
2018-01-13T07:58:36.059Z,1.7
2018-01-13T07:59:35.582Z,1.65
2018-01-13T08:00:35.854Z,1.7
2018-01-13T08:01:50.781Z,1.73
2018-01-13T08:02:36.133Z,1.69
2018-01-13T08:03:36.222Z,1.73
2018-01-13T08:04:35.905Z,1.8
2018-01-13T08:05:35.648Z,1.72
2018-01-13T08:06:35.931Z,1.68
2018-01-13T08:07:35.920Z,1.66
2018-01-13T08:08:36.212Z,1.72
2018-01-13T08:09:36.207Z,1.68
2018-01-13T08:10:50.649Z,1.72
2018-01-13T08:11:36.281Z,1.73
2018-01-13T08:12:50.689Z,1.72
2018-01-13T08:13:36.257Z,1.68
2018-01-13T08:14:36.027Z,1.73
2018-01-13T08:15:36.037Z,1.77
2018-01-13T08:16:36.296Z,1.73
2018-01-13T08:17:50.985Z,1.66
2018-01-13T08:18:36.322Z,1.76
2018-01-13T08:19:36.082Z,1.76
2018-01-13T08:20:36.367Z,1.68
2018-01-13T08:21:36.392Z,1.73
2018-01-13T08:22:36.379Z,1.65
2018-01-13T08:23:36.414Z,1.62
2018-01-13T08:24:36.443Z,1.66
2018-01-13T08:27:36.444Z,1.62
2018-01-13T08:28:36.470Z,1.59
2018-01-13T08:29:36.241Z,1.55
2018-01-13T08:30:36.234Z,1.65
2018-01-13T08:31:36.535Z,1.69
2018-01-13T08:32:51.183Z,1.63
2018-01-13T08:33:36.264Z,1.68
2018-01-13T08:34:36.303Z,1.62
2018-01-13T08:35:36.296Z,1.66
2018-01-13T08:36:36.316Z,1.76
2018-01-13T08:37:36.587Z,1.7
2018-01-13T08:38:36.099Z,1.68
2018-01-13T08:39:36.615Z,1.68
2018-01-13T08:41:36.396Z,1.72
2018-01-13T08:42:36.384Z,1.66
2018-01-13T08:44:36.423Z,1.7
2018-01-13T08:45:51.115Z,1.77
2018-01-13T08:46:36.471Z,1.81
2018-01-13T08:47:36.456Z,1.81
2018-01-13T08:48:36.225Z,1.77
2018-01-13T08:49:36.474Z,1.79
2018-01-13T08:50:36.764Z,1.86
2018-01-13T08:51:36.750Z,1.68
2018-01-13T08:52:36.785Z,1.77
2018-01-13T08:53:36.815Z,1.55
2018-01-13T08:54:36.813Z,1.51
2018-01-13T08:55:36.845Z,1.59
2018-01-13T08:56:36.843Z,1.55
2018-01-13T08:57:36.878Z,1.48
2018-01-13T08:58:36.869Z,1.6
2018-01-13T08:59:36.915Z,1.55
2018-01-13T09:00:36.641Z,1.55
2018-01-13T09:01:51.581Z,1.65
2018-01-13T09:02:36.670Z,1.62
2018-01-13T09:03:36.665Z,1.65
2018-01-13T09:04:51.610Z,1.66
2018-01-13T09:05:36.464Z,1.66
2018-01-13T09:06:36.751Z,1.76
2018-01-13T09:07:36.963Z,1.65
2018-01-13T09:08:36.984Z,1.65
2018-01-13T09:09:37.011Z,1.68
2018-01-13T09:10:37.052Z,1.66
2018-01-13T09:11:36.779Z,1.73
2018-01-13T09:12:37.057Z,1.77
2018-01-13T09:13:36.543Z,1.8
2018-01-13T09:14:37.060Z,1.76
2018-01-13T09:15:37.090Z,1.6
2018-01-13T09:16:36.861Z,1.48
2018-01-13T09:17:37.170Z,1.65
2018-01-13T09:18:37.116Z,1.52
2018-01-13T09:19:37.145Z,1.51
2018-01-13T09:20:51.840Z,1.5
2018-01-13T09:21:37.198Z,1.54
2018-01-13T09:22:37.185Z,1.6
2018-01-13T09:23:37.181Z,1.69
2018-01-13T09:24:37.202Z,1.76
2018-01-13T09:25:37.206Z,1.66
2018-01-13T09:26:37.235Z,1.69
2018-01-13T09:27:36.984Z,1.6
2018-01-13T09:28:37.010Z,1.62
2018-01-13T09:29:51.693Z,1.69
2018-01-13T09:30:37.389Z,1.6
2018-01-13T09:31:37.054Z,1.65
2018-01-13T09:32:37.072Z,1.73
2018-01-13T09:33:37.101Z,1.79
2018-01-13T09:34:37.351Z,1.83
2018-01-13T09:35:37.091Z,1.98
2018-01-13T09:36:52.133Z,2.05
2018-01-13T09:37:37.128Z,2.1
2018-01-13T09:38:37.386Z,2.09
2018-01-13T09:39:37.436Z,2.07
2018-01-13T09:40:37.196Z,2.09
2018-01-13T09:41:37.457Z,2.03
2018-01-13T09:42:37.203Z,2.02
2018-01-13T09:43:37.217Z,2.03
2018-01-13T09:45:37.222Z,1.81
2018-01-13T09:46:37.238Z,1.86
2018-01-13T09:47:37.013Z,1.84
2018-01-13T09:48:37.015Z,1.84
2018-01-13T09:49:37.311Z,1.8
2018-01-13T09:50:52.224Z,1.77
2018-01-13T09:51:37.346Z,1.77
2018-01-13T09:52:52.252Z,1.9
2018-01-13T09:53:37.611Z,1.95
2018-01-13T09:54:37.600Z,2.12
2018-01-13T09:55:37.394Z,2.03
2018-01-13T09:56:37.416Z,2.03
2018-01-13T09:57:37.690Z,2.02
2018-01-13T09:58:37.159Z,1.95
2018-01-13T09:59:37.687Z,1.93
2018-01-13T10:00:52.111Z,1.98
2018-01-13T10:01:37.445Z,1.99
2018-01-13T10:02:37.462Z,2.03
2018-01-13T10:03:37.563Z,2.05
2018-01-13T10:04:52.417Z,2.14
2018-01-13T10:05:37.513Z,2.09
2018-01-13T10:06:37.828Z,2.12
2018-01-13T10:08:37.818Z,1.99
2018-01-13T10:09:37.555Z,1.93
2018-01-13T10:10:37.587Z,2.03
2018-01-13T10:11:37.614Z,2.16
2018-01-13T10:12:37.852Z,2.14
2018-01-13T10:13:37.864Z,2.17
2018-01-13T10:14:37.872Z,2.34
2018-01-13T10:16:37.704Z,2.1
2018-01-13T10:17:52.366Z,2.07
2018-01-13T10:18:37.427Z,2.25
2018-01-13T10:19:37.962Z,2.09
2018-01-13T10:20:52.405Z,2.1
2018-01-13T10:21:37.992Z,1.99
2018-01-13T10:22:38.008Z,1.98
2018-01-13T10:23:38.017Z,1.86
2018-01-13T10:24:37.774Z,1.84
2018-01-13T10:25:37.775Z,1.84
2018-01-13T10:26:37.552Z,1.79
2018-01-13T10:27:38.077Z,1.87
2018-01-13T10:28:38.105Z,1.84
2018-01-13T10:29:37.608Z,1.8
2018-01-13T10:30:37.880Z,1.73
2018-01-13T10:31:38.134Z,1.81
2018-01-13T10:32:38.215Z,1.79
2018-01-13T10:33:37.912Z,1.7
2018-01-13T10:34:38.154Z,1.7
2018-01-13T10:35:37.910Z,1.68
2018-01-13T10:36:38.301Z,1.66
2018-01-13T10:37:38.053Z,1.7
2018-01-13T10:38:38.249Z,1.7
2018-01-13T10:39:52.652Z,1.66
2018-01-13T10:40:38.233Z,1.72
2018-01-13T10:41:38.269Z,1.65
2018-01-13T10:42:38.318Z,1.62
2018-01-13T10:43:38.269Z,1.54
2018-01-13T10:44:38.313Z,1.58
2018-01-13T10:45:38.070Z,1.6
2018-01-13T10:46:38.317Z,1.7
2018-01-13T10:47:38.102Z,1.73
2018-01-13T10:48:38.109Z,1.68
2018-01-13T10:49:38.100Z,1.7
2018-01-13T10:51:38.384Z,1.65
2018-01-13T10:52:38.466Z,1.83
2018-01-13T10:53:38.155Z,1.77
2018-01-13T10:54:38.183Z,1.77
2018-01-13T10:55:53.131Z,1.8
2018-01-13T10:56:38.444Z,1.7
2018-01-13T10:57:38.504Z,1.77
2018-01-13T10:59:38.507Z,1.73
2018-01-13T11:00:38.534Z,1.7
2018-01-13T11:01:38.534Z,1.79
2018-01-13T11:02:38.530Z,1.77
2018-01-13T11:03:38.561Z,1.76
2018-01-13T11:04:52.987Z,1.68
2018-01-13T11:05:53.015Z,1.79
2018-01-13T11:06:38.707Z,1.81
2018-01-13T11:08:38.647Z,1.83
2018-01-13T11:09:38.369Z,1.76
2018-01-13T11:10:38.403Z,1.69
2018-01-13T11:11:53.326Z,1.65
2018-01-13T11:12:38.689Z,1.66
2018-01-13T11:13:38.696Z,1.59
2018-01-13T11:14:38.433Z,1.63
2018-01-13T11:15:38.698Z,1.73
2018-01-13T11:16:38.719Z,1.63
2018-01-13T11:17:38.746Z,1.77
2018-01-13T11:18:38.529Z,1.77
2018-01-13T11:20:53.200Z,1.7
2018-01-13T11:21:38.780Z,1.76
2018-01-13T11:22:53.497Z,1.58
2018-01-13T11:23:38.823Z,1.58
2018-01-13T11:24:38.842Z,1.62
2018-01-13T11:25:38.872Z,1.66
2018-01-13T11:26:38.863Z,1.66
2018-01-13T11:27:53.287Z,1.66
2018-01-13T11:28:38.893Z,1.77
2018-01-13T11:29:38.405Z,1.73
2018-01-13T11:30:38.944Z,1.87
2018-01-13T11:31:38.911Z,1.84
2018-01-13T11:32:38.942Z,1.8
2018-01-13T11:33:38.721Z,1.77
2018-01-13T11:34:38.953Z,1.62
2018-01-13T11:35:39.011Z,1.63
2018-01-13T11:36:38.978Z,1.7
2018-01-13T11:37:39.029Z,1.65
2018-01-13T11:38:39.048Z,1.72
2018-01-13T11:39:39.038Z,1.6
2018-01-13T11:40:39.065Z,1.72
2018-01-13T11:41:38.791Z,1.7
2018-01-13T11:42:53.739Z,1.7
2018-01-13T11:43:39.098Z,1.77
2018-01-13T11:44:38.865Z,1.88
2018-01-13T11:45:39.106Z,1.72
2018-01-13T11:46:38.875Z,1.79
2018-01-13T11:47:39.129Z,1.84
2018-01-13T11:48:39.136Z,1.84
2018-01-13T11:49:38.903Z,1.76
2018-01-13T11:50:39.162Z,1.76
2018-01-13T11:51:39.215Z,1.76
2018-01-13T11:52:38.939Z,1.79
2018-01-13T11:53:39.208Z,1.76
2018-01-13T11:54:53.905Z,1.87
2018-01-13T11:55:53.912Z,1.79
2018-01-13T11:56:39.282Z,1.76
2018-01-13T11:57:39.259Z,1.66
2018-01-13T11:58:39.296Z,1.68
2018-01-13T11:59:39.282Z,1.69
2018-01-13T12:00:39.070Z,1.76
2018-01-13T12:01:39.313Z,1.79
2018-01-13T12:02:39.332Z,1.66
2018-01-13T12:03:39.361Z,1.6
2018-01-13T12:04:39.372Z,1.68
2018-01-13T12:05:39.111Z,1.77
2018-01-13T12:06:39.410Z,1.72
2018-01-13T12:07:39.415Z,1.81
2018-01-13T12:08:39.424Z,1.72
2018-01-13T12:09:39.442Z,1.7
2018-01-13T12:10:39.190Z,1.77
2018-01-13T12:11:39.444Z,1.73
2018-01-13T12:13:39.472Z,1.66
2018-01-13T12:14:54.161Z,1.55
2018-01-13T12:15:39.518Z,1.62
2018-01-13T12:16:39.514Z,1.59
2018-01-13T12:17:39.311Z,1.54
2018-01-13T12:18:39.553Z,1.58
2018-01-13T12:19:39.556Z,1.6
2018-01-13T12:20:39.579Z,1.59
2018-01-13T12:21:39.345Z,1.54
2018-01-13T12:22:39.607Z,1.51
2018-01-13T12:23:39.623Z,1.52
2018-01-13T12:24:39.768Z,1.52
2018-01-13T12:25:39.689Z,1.54
2018-01-13T12:26:39.668Z,1.41
2018-01-13T12:27:39.756Z,1.42
2018-01-13T12:28:39.414Z,1.48
2018-01-13T12:29:39.721Z,1.47
2018-01-13T12:30:54.394Z,1.44
2018-01-13T12:31:39.721Z,1.5
2018-01-13T12:32:39.510Z,1.52
2018-01-13T12:34:39.743Z,1.58
2018-01-13T12:35:39.505Z,1.59
2018-01-13T12:36:39.811Z,1.5
2018-01-13T12:37:39.802Z,1.5
2018-01-13T12:38:39.566Z,1.54
2018-01-13T12:39:39.818Z,1.47
2018-01-13T12:40:54.530Z,1.65
2018-01-13T12:41:39.342Z,1.6
2018-01-13T12:43:39.627Z,1.69
2018-01-13T12:44:39.895Z,1.73
2018-01-13T12:45:39.893Z,1.7
2018-01-13T12:46:54.587Z,1.68
2018-01-13T12:47:39.918Z,1.58
2018-01-13T12:48:39.937Z,1.54
2018-01-13T12:49:39.949Z,1.47
2018-01-13T12:50:39.963Z,1.59
2018-01-13T12:51:40.092Z,1.59
2018-01-13T12:52:54.412Z,1.6
2018-01-13T12:53:39.753Z,1.65
2018-01-13T12:54:40.011Z,1.62
2018-01-13T12:55:40.065Z,1.65
2018-01-13T12:56:40.059Z,1.66
2018-01-13T12:57:40.089Z,1.65
2018-01-13T12:58:40.064Z,1.68
2018-01-13T12:59:39.844Z,1.62
2018-01-13T13:00:40.127Z,1.7
2018-01-13T13:01:39.848Z,1.77
2018-01-13T13:02:54.800Z,1.77
2018-01-13T13:03:39.628Z,1.76
2018-01-13T13:04:39.914Z,1.68
2018-01-13T13:05:40.180Z,1.68
2018-01-13T13:06:39.929Z,1.66
2018-01-13T13:07:39.940Z,1.79
2018-01-13T13:08:40.201Z,1.76
2018-01-13T13:09:40.204Z,1.68
2018-01-13T13:10:39.974Z,1.76
2018-01-13T13:11:40.248Z,1.66
2018-01-13T13:12:40.017Z,1.66
2018-01-13T13:13:40.280Z,1.69
2018-01-13T13:14:54.952Z,1.79
2018-01-13T13:15:40.309Z,1.77
2018-01-13T13:16:54.983Z,1.77
2018-01-13T13:17:55.016Z,1.83
2018-01-13T13:18:40.341Z,1.69
2018-01-13T13:19:40.352Z,1.66
2018-01-13T13:20:40.359Z,1.77
2018-01-13T13:21:40.380Z,1.77
2018-01-13T13:22:40.374Z,1.73
2018-01-13T13:23:40.416Z,1.81
2018-01-13T13:24:40.427Z,1.76
2018-01-13T13:25:54.846Z,1.86
2018-01-13T13:26:40.187Z,1.84
2018-01-13T13:27:40.465Z,1.8
2018-01-13T13:28:40.472Z,1.86
2018-01-13T13:29:40.217Z,1.88
2018-01-13T13:30:40.246Z,1.88
2018-01-13T13:31:40.499Z,1.87
2018-01-13T13:33:40.280Z,1.9
2018-01-13T13:34:40.577Z,1.79
2018-01-13T13:35:40.571Z,1.95
2018-01-13T13:36:40.575Z,1.91
2018-01-13T13:37:40.337Z,1.87
2018-01-13T13:38:40.693Z,1.81
2018-01-13T13:39:40.600Z,1.81
2018-01-13T13:40:40.385Z,1.79
2018-01-13T13:42:40.665Z,1.93
2018-01-13T13:43:40.677Z,1.8
2018-01-13T13:45:40.478Z,1.84
2018-01-13T13:46:55.377Z,1.88
2018-01-13T13:47:40.710Z,1.87
2018-01-13T13:48:40.746Z,1.81
2018-01-13T13:49:55.171Z,1.81
2018-01-13T13:50:40.772Z,1.87
2018-01-13T13:51:40.772Z,1.9
2018-01-13T13:52:40.800Z,1.84
2018-01-13T13:53:40.807Z,1.86
2018-01-13T13:54:40.827Z,1.9
2018-01-13T13:55:40.607Z,1.98
2018-01-13T13:56:40.852Z,1.93
2018-01-13T13:57:40.898Z,1.88
2018-01-13T13:58:40.872Z,1.86
2018-01-13T13:59:40.671Z,1.88
2018-01-13T14:00:40.644Z,1.95
2018-01-13T14:02:40.906Z,1.99
2018-01-13T14:03:40.959Z,1.98